sensor_id;sensor_type;location;lat;lon;timestamp;temperature;humidity
31729;DHT22;18309;43.658;1.312;2023-04-24T00:00:01;13.20;99.90
31729;DHT22;18309;43.658;1.312;2023-04-24T00:02:26;13.20;99.90
31729;DHT22;18309;43.658;1.312;2023-04-24T00:04:52;13.20;99.90
31729;DHT22;18309;43.658;1.312;2023-04-24T00:07:18;13.20;99.90
31729;DHT22;18309;43.658;1.312;2023-04-24T00:09:45;13.10;99.90
31729;DHT22;18309;43.658;1.312;2023-04-24T00:12:11;13.20;99.90
31729;DHT22;18309;43.658;1.312;2023-04-24T00:14:36;13.20;99.90
31729;DHT22;18309;43.658;1.312;2023-04-24T00:17:02;13.20;99.90
31729;DHT22;18309;43.658;1.312;2023-04-24T00:19:29;13.20;99.90
31729;DHT22;18309;43.658;1.312;2023-04-24T00:21:54;13.20;99.90
31729;DHT22;18309;43.658;1.312;2023-04-24T00:24:20;13.10;99.90
31729;DHT22;18309;43.658;1.312;2023-04-24T00:26:46;13.10;99.90
31729;DHT22;18309;43.658;1.312;2023-04-24T00:29:12;13.10;99.90
31729;DHT22;18309;43.658;1.312;2023-04-24T00:31:38;13.10;99.90
31729;DHT22;18309;43.658;1.312;2023-04-24T00:34:04;13.10;99.90
31729;DHT22;18309;43.658;1.312;2023-04-24T00:36:30;13.10;99.90
31729;DHT22;18309;43.658;1.312;2023-04-24T00:38:56;13.10;99.90
31729;DHT22;18309;43.658;1.312;2023-04-24T00:41:24;13.00;99.90
31729;DHT22;18309;43.658;1.312;2023-04-24T00:43:50;13.00;99.90
31729;DHT22;18309;43.658;1.312;2023-04-24T00:46:16;13.00;99.90
31729;DHT22;18309;43.658;1.312;2023-04-24T00:48:43;13.00;99.90
31729;DHT22;18309;43.658;1.312;2023-04-24T00:51:09;13.00;99.90
31729;DHT22;18309;43.658;1.312;2023-04-24T00:53:35;13.00;99.90
31729;DHT22;18309;43.658;1.312;2023-04-24T00:56:01;13.00;99.90
31729;DHT22;18309;43.658;1.312;2023-04-24T00:58:27;12.90;99.90
31729;DHT22;18309;43.658;1.312;2023-04-24T01:00:54;13.00;99.90
31729;DHT22;18309;43.658;1.312;2023-04-24T01:03:22;12.90;99.90
31729;DHT22;18309;43.658;1.312;2023-04-24T01:05:50;13.00;99.90
31729;DHT22;18309;43.658;1.312;2023-04-24T01:08:16;12.90;99.90
31729;DHT22;18309;43.658;1.312;2023-04-24T01:10:44;12.90;99.90
31729;DHT22;18309;43.658;1.312;2023-04-24T01:13:11;12.80;99.90
31729;DHT22;18309;43.658;1.312;2023-04-24T01:15:37;12.80;99.90
31729;DHT22;18309;43.658;1.312;2023-04-24T01:18:03;12.80;99.90
31729;DHT22;18309;43.658;1.312;2023-04-24T01:20:29;12.80;99.90
31729;DHT22;18309;43.658;1.312;2023-04-24T01:22:55;12.80;99.90
31729;DHT22;18309;43.658;1.312;2023-04-24T01:25:22;12.80;99.90
31729;DHT22;18309;43.658;1.312;2023-04-24T01:27:48;12.80;99.90
31729;DHT22;18309;43.658;1.312;2023-04-24T01:30:14;12.70;99.90
31729;DHT22;18309;43.658;1.312;2023-04-24T01:32:40;12.70;99.90
31729;DHT22;18309;43.658;1.312;2023-04-24T01:35:07;12.70;99.90
31729;DHT22;18309;43.658;1.312;2023-04-24T01:37:33;12.70;99.90
31729;DHT22;18309;43.658;1.312;2023-04-24T01:39:59;12.70;99.90
31729;DHT22;18309;43.658;1.312;2023-04-24T01:42:25;12.70;99.90
31729;DHT22;18309;43.658;1.312;2023-04-24T01:44:51;12.70;99.90
31729;DHT22;18309;43.658;1.312;2023-04-24T01:47:17;12.70;99.90
31729;DHT22;18309;43.658;1.312;2023-04-24T01:49:43;12.70;99.90
31729;DHT22;18309;43.658;1.312;2023-04-24T01:52:10;12.60;99.90
31729;DHT22;18309;43.658;1.312;2023-04-24T01:54:36;12.60;99.90
31729;DHT22;18309;43.658;1.312;2023-04-24T01:57:02;12.60;99.90
31729;DHT22;18309;43.658;1.312;2023-04-24T01:59:28;12.60;99.90
31729;DHT22;18309;43.658;1.312;2023-04-24T02:01:55;12.50;99.90
31729;DHT22;18309;43.658;1.312;2023-04-24T02:04:21;12.50;99.90
31729;DHT22;18309;43.658;1.312;2023-04-24T02:06:46;12.50;99.90
31729;DHT22;18309;43.658;1.312;2023-04-24T02:09:12;12.50;99.90
31729;DHT22;18309;43.658;1.312;2023-04-24T02:11:38;12.40;99.90
31729;DHT22;18309;43.658;1.312;2023-04-24T02:14:03;12.40;99.90
31729;DHT22;18309;43.658;1.312;2023-04-24T02:16:29;12.40;99.90
31729;DHT22;18309;43.658;1.312;2023-04-24T02:18:58;12.40;99.90
31729;DHT22;18309;43.658;1.312;2023-04-24T02:21:24;12.40;99.90
31729;DHT22;18309;43.658;1.312;2023-04-24T02:23:49;12.40;99.90
31729;DHT22;18309;43.658;1.312;2023-04-24T02:26:15;12.40;99.90
31729;DHT22;18309;43.658;1.312;2023-04-24T02:28:41;12.40;99.90
31729;DHT22;18309;43.658;1.312;2023-04-24T02:31:07;12.30;99.90
31729;DHT22;18309;43.658;1.312;2023-04-24T02:33:33;12.30;99.90
31729;DHT22;18309;43.658;1.312;2023-04-24T02:35:58;12.30;99.90
31729;DHT22;18309;43.658;1.312;2023-04-24T02:38:24;12.30;99.90
31729;DHT22;18309;43.658;1.312;2023-04-24T02:40:50;12.30;99.90
31729;DHT22;18309;43.658;1.312;2023-04-24T02:43:16;12.30;99.90
31729;DHT22;18309;43.658;1.312;2023-04-24T02:45:41;12.30;99.90
31729;DHT22;18309;43.658;1.312;2023-04-24T02:48:07;12.30;99.90
31729;DHT22;18309;43.658;1.312;2023-04-24T02:50:33;12.30;99.90
31729;DHT22;18309;43.658;1.312;2023-04-24T02:52:59;12.30;99.90
31729;DHT22;18309;43.658;1.312;2023-04-24T02:55:24;12.30;99.90
31729;DHT22;18309;43.658;1.312;2023-04-24T02:57:50;12.30;99.90
31729;DHT22;18309;43.658;1.312;2023-04-24T03:00:16;12.30;99.90
31729;DHT22;18309;43.658;1.312;2023-04-24T03:02:42;12.30;99.90
31729;DHT22;18309;43.658;1.312;2023-04-24T03:05:08;12.30;99.90
31729;DHT22;18309;43.658;1.312;2023-04-24T03:07:34;12.40;99.90
31729;DHT22;18309;43.658;1.312;2023-04-24T03:10:00;12.30;99.90
31729;DHT22;18309;43.658;1.312;2023-04-24T03:12:26;12.40;99.90
31729;DHT22;18309;43.658;1.312;2023-04-24T03:14:51;12.40;99.90
31729;DHT22;18309;43.658;1.312;2023-04-24T03:17:17;12.40;99.90
31729;DHT22;18309;43.658;1.312;2023-04-24T03:19:43;12.40;99.90
31729;DHT22;18309;43.658;1.312;2023-04-24T03:22:08;12.40;99.90
31729;DHT22;18309;43.658;1.312;2023-04-24T03:24:34;12.40;99.90
31729;DHT22;18309;43.658;1.312;2023-04-24T03:27:00;12.40;99.90
31729;DHT22;18309;43.658;1.312;2023-04-24T03:29:26;12.40;99.90
31729;DHT22;18309;43.658;1.312;2023-04-24T03:31:51;12.40;99.90
31729;DHT22;18309;43.658;1.312;2023-04-24T03:34:17;12.40;99.90
31729;DHT22;18309;43.658;1.312;2023-04-24T03:36:43;12.40;99.90
31729;DHT22;18309;43.658;1.312;2023-04-24T03:39:09;12.40;99.90
31729;DHT22;18309;43.658;1.312;2023-04-24T03:41:35;12.40;99.90
31729;DHT22;18309;43.658;1.312;2023-04-24T03:44:01;12.40;99.90
31729;DHT22;18309;43.658;1.312;2023-04-24T03:46:26;12.40;99.90
31729;DHT22;18309;43.658;1.312;2023-04-24T03:48:52;12.30;99.90
31729;DHT22;18309;43.658;1.312;2023-04-24T03:51:18;12.40;99.90
31729;DHT22;18309;43.658;1.312;2023-04-24T03:53:43;12.30;99.90
31729;DHT22;18309;43.658;1.312;2023-04-24T03:56:09;12.30;99.90
31729;DHT22;18309;43.658;1.312;2023-04-24T03:58:35;12.30;99.90
31729;DHT22;18309;43.658;1.312;2023-04-24T04:01:00;12.30;99.90
31729;DHT22;18309;43.658;1.312;2023-04-24T04:03:26;12.30;99.90
31729;DHT22;18309;43.658;1.312;2023-04-24T04:05:52;12.20;99.90
31729;DHT22;18309;43.658;1.312;2023-04-24T04:08:18;12.20;99.90
31729;DHT22;18309;43.658;1.312;2023-04-24T04:10:44;12.20;99.90
31729;DHT22;18309;43.658;1.312;2023-04-24T04:13:09;12.20;99.90
31729;DHT22;18309;43.658;1.312;2023-04-24T04:15:35;12.20;99.90
31729;DHT22;18309;43.658;1.312;2023-04-24T04:18:01;12.20;99.90
31729;DHT22;18309;43.658;1.312;2023-04-24T04:20:26;12.10;99.90
31729;DHT22;18309;43.658;1.312;2023-04-24T04:22:52;12.10;99.90
31729;DHT22;18309;43.658;1.312;2023-04-24T04:25:18;12.10;99.90
31729;DHT22;18309;43.658;1.312;2023-04-24T04:27:45;12.20;99.90
31729;DHT22;18309;43.658;1.312;2023-04-24T04:30:13;12.20;99.90
31729;DHT22;18309;43.658;1.312;2023-04-24T04:32:39;12.20;99.90
31729;DHT22;18309;43.658;1.312;2023-04-24T04:35:05;12.20;99.90
31729;DHT22;18309;43.658;1.312;2023-04-24T04:37:32;12.10;99.90
31729;DHT22;18309;43.658;1.312;2023-04-24T04:39:59;12.10;99.90
31729;DHT22;18309;43.658;1.312;2023-04-24T04:42:25;12.10;99.90
31729;DHT22;18309;43.658;1.312;2023-04-24T04:44:52;12.10;99.90
31729;DHT22;18309;43.658;1.312;2023-04-24T04:47:18;12.10;99.90
31729;DHT22;18309;43.658;1.312;2023-04-24T04:49:47;12.10;99.90
31729;DHT22;18309;43.658;1.312;2023-04-24T04:52:13;12.10;99.90
31729;DHT22;18309;43.658;1.312;2023-04-24T04:54:39;12.10;99.90
31729;DHT22;18309;43.658;1.312;2023-04-24T04:57:05;12.10;99.90
31729;DHT22;18309;43.658;1.312;2023-04-24T04:59:31;12.10;99.90
31729;DHT22;18309;43.658;1.312;2023-04-24T05:01:57;12.20;99.90
31729;DHT22;18309;43.658;1.312;2023-04-24T05:04:22;12.10;99.90
31729;DHT22;18309;43.658;1.312;2023-04-24T05:06:48;12.10;99.90
31729;DHT22;18309;43.658;1.312;2023-04-24T05:09:16;12.20;99.90
31729;DHT22;18309;43.658;1.312;2023-04-24T05:11:41;12.20;99.90
31729;DHT22;18309;43.658;1.312;2023-04-24T05:14:07;12.10;99.90
31729;DHT22;18309;43.658;1.312;2023-04-24T05:16:33;12.20;99.90
31729;DHT22;18309;43.658;1.312;2023-04-24T05:18:59;12.10;99.90
31729;DHT22;18309;43.658;1.312;2023-04-24T05:21:24;12.20;99.90
31729;DHT22;18309;43.658;1.312;2023-04-24T05:23:50;12.20;99.90
31729;DHT22;18309;43.658;1.312;2023-04-24T05:26:16;12.20;99.90
31729;DHT22;18309;43.658;1.312;2023-04-24T05:28:43;12.20;99.90
31729;DHT22;18309;43.658;1.312;2023-04-24T05:31:08;12.20;99.90
31729;DHT22;18309;43.658;1.312;2023-04-24T05:33:34;12.20;99.90
31729;DHT22;18309;43.658;1.312;2023-04-24T05:36:00;12.20;99.90
31729;DHT22;18309;43.658;1.312;2023-04-24T05:38:25;12.20;99.90
31729;DHT22;18309;43.658;1.312;2023-04-24T05:40:51;12.20;99.90
31729;DHT22;18309;43.658;1.312;2023-04-24T05:43:17;12.20;99.90
31729;DHT22;18309;43.658;1.312;2023-04-24T05:45:42;12.20;99.90
31729;DHT22;18309;43.658;1.312;2023-04-24T05:48:08;12.20;99.90
31729;DHT22;18309;43.658;1.312;2023-04-24T05:50:34;12.20;99.90
31729;DHT22;18309;43.658;1.312;2023-04-24T05:52:59;12.20;99.90
31729;DHT22;18309;43.658;1.312;2023-04-24T05:55:27;12.30;99.90
31729;DHT22;18309;43.658;1.312;2023-04-24T05:57:53;12.30;99.90
31729;DHT22;18309;43.658;1.312;2023-04-24T06:00:19;12.30;99.90
31729;DHT22;18309;43.658;1.312;2023-04-24T06:02:46;12.30;99.90
31729;DHT22;18309;43.658;1.312;2023-04-24T06:05:12;12.30;99.90
31729;DHT22;18309;43.658;1.312;2023-04-24T06:07:38;12.30;99.90
31729;DHT22;18309;43.658;1.312;2023-04-24T06:10:04;12.30;99.90
31729;DHT22;18309;43.658;1.312;2023-04-24T06:12:29;12.30;99.90
31729;DHT22;18309;43.658;1.312;2023-04-24T06:14:55;12.30;99.90
31729;DHT22;18309;43.658;1.312;2023-04-24T06:17:21;12.30;99.90
31729;DHT22;18309;43.658;1.312;2023-04-24T06:19:47;12.30;99.90
31729;DHT22;18309;43.658;1.312;2023-04-24T06:22:13;12.40;99.90
31729;DHT22;18309;43.658;1.312;2023-04-24T06:24:40;12.40;99.90
31729;DHT22;18309;43.658;1.312;2023-04-24T06:27:05;12.40;99.90
31729;DHT22;18309;43.658;1.312;2023-04-24T06:29:32;12.40;99.90
31729;DHT22;18309;43.658;1.312;2023-04-24T06:31:58;12.40;99.90
31729;DHT22;18309;43.658;1.312;2023-04-24T06:34:24;12.40;99.90
31729;DHT22;18309;43.658;1.312;2023-04-24T06:36:50;12.50;99.90
31729;DHT22;18309;43.658;1.312;2023-04-24T06:39:15;12.60;99.90
31729;DHT22;18309;43.658;1.312;2023-04-24T06:41:41;12.70;99.90
31729;DHT22;18309;43.658;1.312;2023-04-24T06:44:07;12.80;99.90
31729;DHT22;18309;43.658;1.312;2023-04-24T06:46:32;12.90;99.90
31729;DHT22;18309;43.658;1.312;2023-04-24T06:48:58;12.60;99.90
31729;DHT22;18309;43.658;1.312;2023-04-24T06:51:25;12.50;99.90
31729;DHT22;18309;43.658;1.312;2023-04-24T06:53:52;12.40;99.90
31729;DHT22;18309;43.658;1.312;2023-04-24T06:56:18;12.30;99.90
31729;DHT22;18309;43.658;1.312;2023-04-24T06:58:44;12.20;99.90
31729;DHT22;18309;43.658;1.312;2023-04-24T07:01:11;12.20;99.90
31729;DHT22;18309;43.658;1.312;2023-04-24T07:03:36;12.10;99.90
31729;DHT22;18309;43.658;1.312;2023-04-24T07:06:02;12.10;99.90
31729;DHT22;18309;43.658;1.312;2023-04-24T07:08:29;12.10;99.90
31729;DHT22;18309;43.658;1.312;2023-04-24T07:10:56;12.20;99.90
31729;DHT22;18309;43.658;1.312;2023-04-24T07:13:22;12.20;99.90
31729;DHT22;18309;43.658;1.312;2023-04-24T07:15:48;12.10;99.90
31729;DHT22;18309;43.658;1.312;2023-04-24T07:18:19;12.10;99.90
31729;DHT22;18309;43.658;1.312;2023-04-24T07:20:45;12.00;99.90
31729;DHT22;18309;43.658;1.312;2023-04-24T07:23:11;12.00;99.90
31729;DHT22;18309;43.658;1.312;2023-04-24T07:25:36;12.00;99.90
31729;DHT22;18309;43.658;1.312;2023-04-24T07:28:03;12.10;99.90
31729;DHT22;18309;43.658;1.312;2023-04-24T07:30:30;12.10;99.90
31729;DHT22;18309;43.658;1.312;2023-04-24T07:32:58;12.20;99.90
31729;DHT22;18309;43.658;1.312;2023-04-24T07:35:24;12.20;99.90
31729;DHT22;18309;43.658;1.312;2023-04-24T07:37:52;12.20;99.90
31729;DHT22;18309;43.658;1.312;2023-04-24T07:40:18;12.10;99.90
31729;DHT22;18309;43.658;1.312;2023-04-24T07:42:44;12.10;99.90
31729;DHT22;18309;43.658;1.312;2023-04-24T07:45:10;12.30;99.90
31729;DHT22;18309;43.658;1.312;2023-04-24T07:47:35;12.30;99.90
31729;DHT22;18309;43.658;1.312;2023-04-24T07:50:03;12.40;99.90
31729;DHT22;18309;43.658;1.312;2023-04-24T07:52:28;12.50;99.90
31729;DHT22;18309;43.658;1.312;2023-04-24T07:54:55;12.50;99.90
31729;DHT22;18309;43.658;1.312;2023-04-24T07:57:24;12.50;99.90
31729;DHT22;18309;43.658;1.312;2023-04-24T07:59:50;12.50;99.90
31729;DHT22;18309;43.658;1.312;2023-04-24T08:02:16;12.50;99.90
31729;DHT22;18309;43.658;1.312;2023-04-24T08:04:42;12.40;99.90
31729;DHT22;18309;43.658;1.312;2023-04-24T08:07:07;12.40;99.90
31729;DHT22;18309;43.658;1.312;2023-04-24T08:09:34;12.50;99.90
31729;DHT22;18309;43.658;1.312;2023-04-24T08:12:00;12.60;99.90
31729;DHT22;18309;43.658;1.312;2023-04-24T08:14:26;12.60;99.90
31729;DHT22;18309;43.658;1.312;2023-04-24T08:16:54;12.60;99.90
31729;DHT22;18309;43.658;1.312;2023-04-24T08:19:21;12.70;99.90
31729;DHT22;18309;43.658;1.312;2023-04-24T08:21:47;12.80;99.90
31729;DHT22;18309;43.658;1.312;2023-04-24T08:24:12;12.80;99.90
31729;DHT22;18309;43.658;1.312;2023-04-24T08:26:38;12.80;99.90
31729;DHT22;18309;43.658;1.312;2023-04-24T08:29:05;12.90;99.90
31729;DHT22;18309;43.658;1.312;2023-04-24T08:31:32;12.90;99.90
31729;DHT22;18309;43.658;1.312;2023-04-24T08:33:58;12.90;99.90
31729;DHT22;18309;43.658;1.312;2023-04-24T08:36:26;13.00;99.90
31729;DHT22;18309;43.658;1.312;2023-04-24T08:38:52;13.00;99.90
31729;DHT22;18309;43.658;1.312;2023-04-24T08:41:18;13.00;99.90
31729;DHT22;18309;43.658;1.312;2023-04-24T08:43:47;13.10;99.90
31729;DHT22;18309;43.658;1.312;2023-04-24T08:46:15;13.20;99.90
31729;DHT22;18309;43.658;1.312;2023-04-24T08:48:42;13.30;99.90
31729;DHT22;18309;43.658;1.312;2023-04-24T08:51:08;13.30;99.90
31729;DHT22;18309;43.658;1.312;2023-04-24T08:53:35;13.40;99.90
31729;DHT22;18309;43.658;1.312;2023-04-24T08:56:02;13.40;99.90
31729;DHT22;18309;43.658;1.312;2023-04-24T08:58:28;13.30;99.90
31729;DHT22;18309;43.658;1.312;2023-04-24T09:00:56;13.30;99.90
31729;DHT22;18309;43.658;1.312;2023-04-24T09:03:22;13.40;99.90
31729;DHT22;18309;43.658;1.312;2023-04-24T09:05:49;13.50;99.90
31729;DHT22;18309;43.658;1.312;2023-04-24T09:08:18;13.50;99.90
31729;DHT22;18309;43.658;1.312;2023-04-24T09:10:46;13.40;99.90
31729;DHT22;18309;43.658;1.312;2023-04-24T09:13:13;13.50;99.90
31729;DHT22;18309;43.658;1.312;2023-04-24T09:15:40;13.70;99.90
31729;DHT22;18309;43.658;1.312;2023-04-24T09:18:06;13.70;99.90
31729;DHT22;18309;43.658;1.312;2023-04-24T09:20:33;13.80;99.90
31729;DHT22;18309;43.658;1.312;2023-04-24T09:22:58;13.80;99.90
31729;DHT22;18309;43.658;1.312;2023-04-24T09:25:31;13.80;99.90
31729;DHT22;18309;43.658;1.312;2023-04-24T09:28:04;13.80;99.90
31729;DHT22;18309;43.658;1.312;2023-04-24T09:30:31;13.80;99.90
31729;DHT22;18309;43.658;1.312;2023-04-24T09:33:15;13.90;99.90
31729;DHT22;18309;43.658;1.312;2023-04-24T09:35:49;13.90;99.90
31729;DHT22;18309;43.658;1.312;2023-04-24T09:38:16;13.90;99.90
31729;DHT22;18309;43.658;1.312;2023-04-24T09:40:42;13.90;99.90
31729;DHT22;18309;43.658;1.312;2023-04-24T09:43:10;13.90;99.90
31729;DHT22;18309;43.658;1.312;2023-04-24T09:45:38;13.90;99.90
31729;DHT22;18309;43.658;1.312;2023-04-24T09:48:04;14.00;99.90
31729;DHT22;18309;43.658;1.312;2023-04-24T09:50:32;13.90;99.90
31729;DHT22;18309;43.658;1.312;2023-04-24T09:53:02;14.00;99.90
31729;DHT22;18309;43.658;1.312;2023-04-24T09:55:29;14.00;99.90
31729;DHT22;18309;43.658;1.312;2023-04-24T09:57:57;14.10;99.90
31729;DHT22;18309;43.658;1.312;2023-04-24T10:00:28;14.10;99.90
31729;DHT22;18309;43.658;1.312;2023-04-24T10:03:00;14.10;99.90
31729;DHT22;18309;43.658;1.312;2023-04-24T10:05:34;14.20;99.90
31729;DHT22;18309;43.658;1.312;2023-04-24T10:08:08;14.20;99.90
31729;DHT22;18309;43.658;1.312;2023-04-24T10:10:37;14.40;99.90
31729;DHT22;18309;43.658;1.312;2023-04-24T10:13:04;14.50;99.90
31729;DHT22;18309;43.658;1.312;2023-04-24T10:15:30;14.60;99.90
31729;DHT22;18309;43.658;1.312;2023-04-24T10:17:58;14.70;99.90
31729;DHT22;18309;43.658;1.312;2023-04-24T10:20:26;14.70;99.90
31729;DHT22;18309;43.658;1.312;2023-04-24T10:22:55;14.80;99.90
31729;DHT22;18309;43.658;1.312;2023-04-24T10:25:23;14.90;99.90
31729;DHT22;18309;43.658;1.312;2023-04-24T10:27:51;15.00;99.90
31729;DHT22;18309;43.658;1.312;2023-04-24T10:30:18;15.10;99.90
31729;DHT22;18309;43.658;1.312;2023-04-24T10:32:44;15.10;99.90
31729;DHT22;18309;43.658;1.312;2023-04-24T10:35:12;15.20;99.90
31729;DHT22;18309;43.658;1.312;2023-04-24T10:37:48;15.10;99.90
31729;DHT22;18309;43.658;1.312;2023-04-24T10:40:27;15.10;99.90
31729;DHT22;18309;43.658;1.312;2023-04-24T10:42:56;15.10;99.90
31729;DHT22;18309;43.658;1.312;2023-04-24T10:45:23;15.10;99.90
31729;DHT22;18309;43.658;1.312;2023-04-24T10:50:27;15.20;99.90
31729;DHT22;18309;43.658;1.312;2023-04-24T10:52:53;15.20;99.70
31729;DHT22;18309;43.658;1.312;2023-04-24T10:58:11;15.30;99.90
31729;DHT22;18309;43.658;1.312;2023-04-24T11:00:39;15.30;99.90
31729;DHT22;18309;43.658;1.312;2023-04-24T11:03:06;15.40;99.90
31729;DHT22;18309;43.658;1.312;2023-04-24T11:08:26;15.30;99.90
31729;DHT22;18309;43.658;1.312;2023-04-24T11:10:57;15.30;99.90
31729;DHT22;18309;43.658;1.312;2023-04-24T11:14:00;15.30;99.90
31729;DHT22;18309;43.658;1.312;2023-04-24T11:16:20;15.40;99.90
31729;DHT22;18309;43.658;1.312;2023-04-24T11:19:09;15.40;99.90
31729;DHT22;18309;43.658;1.312;2023-04-24T11:21:41;15.30;99.90
31729;DHT22;18309;43.658;1.312;2023-04-24T11:26:57;15.30;99.70
31729;DHT22;18309;43.658;1.312;2023-04-24T11:29:47;15.20;99.90
31729;DHT22;18309;43.658;1.312;2023-04-24T11:37:29;15.20;99.90
31729;DHT22;18309;43.658;1.312;2023-04-24T11:39:57;15.20;99.90
31729;DHT22;18309;43.658;1.312;2023-04-24T11:42:23;15.20;99.90
31729;DHT22;18309;43.658;1.312;2023-04-24T11:44:51;15.20;99.90
31729;DHT22;18309;43.658;1.312;2023-04-24T11:47:17;15.10;99.90
31729;DHT22;18309;43.658;1.312;2023-04-24T11:49:42;15.20;99.90
31729;DHT22;18309;43.658;1.312;2023-04-24T11:52:08;15.20;99.90
31729;DHT22;18309;43.658;1.312;2023-04-24T11:54:34;15.40;99.80
31729;DHT22;18309;43.658;1.312;2023-04-24T11:57:04;15.40;99.90
31729;DHT22;18309;43.658;1.312;2023-04-24T11:59:30;15.50;99.90
31729;DHT22;18309;43.658;1.312;2023-04-24T12:02:00;15.50;99.90
31729;DHT22;18309;43.658;1.312;2023-04-24T12:04:26;15.60;99.90
31729;DHT22;18309;43.658;1.312;2023-04-24T12:07:04;15.70;99.60
31729;DHT22;18309;43.658;1.312;2023-04-24T12:09:41;15.60;99.40
31729;DHT22;18309;43.658;1.312;2023-04-24T12:12:09;15.70;99.80
31729;DHT22;18309;43.658;1.312;2023-04-24T12:14:52;15.70;99.80
31729;DHT22;18309;43.658;1.312;2023-04-24T12:17:28;15.90;99.30
31729;DHT22;18309;43.658;1.312;2023-04-24T12:19:58;15.90;99.30
31729;DHT22;18309;43.658;1.312;2023-04-24T12:22:25;15.80;99.50
31729;DHT22;18309;43.658;1.312;2023-04-24T12:25:01;15.80;99.70
31729;DHT22;18309;43.658;1.312;2023-04-24T12:27:31;15.80;99.40
31729;DHT22;18309;43.658;1.312;2023-04-24T12:29:59;15.70;99.50
31729;DHT22;18309;43.658;1.312;2023-04-24T12:32:26;15.70;99.00
31729;DHT22;18309;43.658;1.312;2023-04-24T12:34:53;15.80;99.40
31729;DHT22;18309;43.658;1.312;2023-04-24T12:37:19;15.90;99.10
31729;DHT22;18309;43.658;1.312;2023-04-24T12:40:07;16.00;99.40
31729;DHT22;18309;43.658;1.312;2023-04-24T12:42:33;16.20;99.90
31729;DHT22;18309;43.658;1.312;2023-04-24T12:45:04;16.40;99.30
31729;DHT22;18309;43.658;1.312;2023-04-24T12:47:31;16.50;98.70
31729;DHT22;18309;43.658;1.312;2023-04-24T12:49:57;16.40;98.60
31729;DHT22;18309;43.658;1.312;2023-04-24T12:52:23;16.30;98.80
31729;DHT22;18309;43.658;1.312;2023-04-24T12:54:50;16.40;98.40
31729;DHT22;18309;43.658;1.312;2023-04-24T12:57:17;16.50;99.00
31729;DHT22;18309;43.658;1.312;2023-04-24T12:59:43;16.50;98.50
31729;DHT22;18309;43.658;1.312;2023-04-24T13:02:09;16.60;98.80
31729;DHT22;18309;43.658;1.312;2023-04-24T13:04:35;16.50;98.00
31729;DHT22;18309;43.658;1.312;2023-04-24T13:07:01;16.60;98.30
31729;DHT22;18309;43.658;1.312;2023-04-24T13:09:27;16.60;98.40
31729;DHT22;18309;43.658;1.312;2023-04-24T13:11:54;16.70;98.30
31729;DHT22;18309;43.658;1.312;2023-04-24T13:14:20;16.80;98.00
31729;DHT22;18309;43.658;1.312;2023-04-24T13:16:46;16.80;97.60
31729;DHT22;18309;43.658;1.312;2023-04-24T13:19:11;16.80;97.60
31729;DHT22;18309;43.658;1.312;2023-04-24T13:21:37;16.90;97.70
31729;DHT22;18309;43.658;1.312;2023-04-24T13:24:03;17.00;97.30
31729;DHT22;18309;43.658;1.312;2023-04-24T13:26:30;16.90;97.20
31729;DHT22;18309;43.658;1.312;2023-04-24T13:28:56;17.00;97.40
31729;DHT22;18309;43.658;1.312;2023-04-24T13:31:21;17.10;97.00
31729;DHT22;18309;43.658;1.312;2023-04-24T13:33:47;17.00;96.60
31729;DHT22;18309;43.658;1.312;2023-04-24T13:36:13;17.00;97.30
31729;DHT22;18309;43.658;1.312;2023-04-24T13:38:39;17.00;97.00
31729;DHT22;18309;43.658;1.312;2023-04-24T13:41:05;17.10;97.10
31729;DHT22;18309;43.658;1.312;2023-04-24T13:43:30;17.00;96.10
31729;DHT22;18309;43.658;1.312;2023-04-24T13:45:56;16.90;96.00
31729;DHT22;18309;43.658;1.312;2023-04-24T13:48:22;16.90;96.30
31729;DHT22;18309;43.658;1.312;2023-04-24T13:50:47;16.90;96.30
31729;DHT22;18309;43.658;1.312;2023-04-24T13:53:15;17.10;96.30
31729;DHT22;18309;43.658;1.312;2023-04-24T13:55:40;17.30;96.30
31729;DHT22;18309;43.658;1.312;2023-04-24T13:58:07;17.40;95.80
31729;DHT22;18309;43.658;1.312;2023-04-24T14:00:33;17.40;96.30
31729;DHT22;18309;43.658;1.312;2023-04-24T14:02:58;17.30;96.10
31729;DHT22;18309;43.658;1.312;2023-04-24T14:05:24;17.30;96.10
31729;DHT22;18309;43.658;1.312;2023-04-24T14:07:50;17.20;96.00
31729;DHT22;18309;43.658;1.312;2023-04-24T14:10:16;17.20;96.60
31729;DHT22;18309;43.658;1.312;2023-04-24T14:12:42;17.10;96.90
31729;DHT22;18309;43.658;1.312;2023-04-24T14:15:08;17.20;96.70
31729;DHT22;18309;43.658;1.312;2023-04-24T14:17:34;17.20;96.00
31729;DHT22;18309;43.658;1.312;2023-04-24T14:20:00;17.20;95.60
31729;DHT22;18309;43.658;1.312;2023-04-24T14:22:26;17.10;95.70
31729;DHT22;18309;43.658;1.312;2023-04-24T14:24:51;17.10;95.50
31729;DHT22;18309;43.658;1.312;2023-04-24T14:27:17;17.10;95.10
31729;DHT22;18309;43.658;1.312;2023-04-24T14:29:43;17.20;95.50
31729;DHT22;18309;43.658;1.312;2023-04-24T14:32:10;17.30;95.30
31729;DHT22;18309;43.658;1.312;2023-04-24T14:34:36;17.40;95.40
31729;DHT22;18309;43.658;1.312;2023-04-24T14:37:02;17.40;95.50
31729;DHT22;18309;43.658;1.312;2023-04-24T14:39:29;17.60;95.30
31729;DHT22;18309;43.658;1.312;2023-04-24T14:41:55;17.60;95.40
31729;DHT22;18309;43.658;1.312;2023-04-24T14:44:21;17.60;95.70
31729;DHT22;18309;43.658;1.312;2023-04-24T14:46:48;17.40;95.70
31729;DHT22;18309;43.658;1.312;2023-04-24T14:49:15;17.40;95.70
31729;DHT22;18309;43.658;1.312;2023-04-24T14:51:41;17.40;95.70
31729;DHT22;18309;43.658;1.312;2023-04-24T14:54:07;17.30;95.90
31729;DHT22;18309;43.658;1.312;2023-04-24T14:56:33;17.30;96.00
31729;DHT22;18309;43.658;1.312;2023-04-24T14:58:59;17.30;95.90
31729;DHT22;18309;43.658;1.312;2023-04-24T15:01:26;17.30;95.90
31729;DHT22;18309;43.658;1.312;2023-04-24T15:03:52;17.30;95.60
31729;DHT22;18309;43.658;1.312;2023-04-24T15:06:18;17.40;96.50
31729;DHT22;18309;43.658;1.312;2023-04-24T15:08:43;17.50;95.90
31729;DHT22;18309;43.658;1.312;2023-04-24T15:11:10;17.50;95.80
31729;DHT22;18309;43.658;1.312;2023-04-24T15:13:36;17.40;95.50
31729;DHT22;18309;43.658;1.312;2023-04-24T15:16:02;17.50;95.80
31729;DHT22;18309;43.658;1.312;2023-04-24T15:18:28;17.70;95.30
31729;DHT22;18309;43.658;1.312;2023-04-24T15:20:55;17.60;95.00
31729;DHT22;18309;43.658;1.312;2023-04-24T15:23:21;17.70;95.30
31729;DHT22;18309;43.658;1.312;2023-04-24T15:25:47;17.80;94.90
31729;DHT22;18309;43.658;1.312;2023-04-24T15:28:13;17.70;94.50
31729;DHT22;18309;43.658;1.312;2023-04-24T15:30:39;17.80;94.30
31729;DHT22;18309;43.658;1.312;2023-04-24T15:33:06;17.90;94.70
31729;DHT22;18309;43.658;1.312;2023-04-24T15:35:31;18.10;95.30
31729;DHT22;18309;43.658;1.312;2023-04-24T15:37:57;18.10;94.70
31729;DHT22;18309;43.658;1.312;2023-04-24T15:40:23;18.10;94.50
31729;DHT22;18309;43.658;1.312;2023-04-24T15:42:48;18.00;94.30